sensor_id;sensor_type;location;lat;lon;timestamp;P1;durP1;ratioP1;P2;durP2;ratioP2
53781;SDS011;39692;53.114;7.060;2022-07-22T00:01:26;6.30;;;2.10;;
53781;SDS011;39692;53.114;7.060;2022-07-22T00:03:51;9.52;;;3.08;;
53781;SDS011;39692;53.114;7.060;2022-07-22T00:06:17;7.80;;;2.53;;
53781;SDS011;39692;53.114;7.060;2022-07-22T00:08:43;9.55;;;2.28;;
53781;SDS011;39692;53.114;7.060;2022-07-22T00:11:08;6.88;;;2.47;;
53781;SDS011;39692;53.114;7.060;2022-07-22T00:13:34;8.40;;;2.80;;
53781;SDS011;39692;53.114;7.060;2022-07-22T00:16:00;6.10;;;2.45;;
53781;SDS011;39692;53.114;7.060;2022-07-22T00:18:25;11.68;;;3.25;;
53781;SDS011;39692;53.114;7.060;2022-07-22T00:20:51;9.13;;;3.05;;
53781;SDS011;39692;53.114;7.060;2022-07-22T00:23:17;7.88;;;2.97;;
53781;SDS011;39692;53.114;7.060;2022-07-22T00:25:42;8.88;;;3.83;;
53781;SDS011;39692;53.114;7.060;2022-07-22T00:28:08;9.77;;;3.30;;
53781;SDS011;39692;53.114;7.060;2022-07-22T00:30:34;9.70;;;3.30;;
53781;SDS011;39692;53.114;7.060;2022-07-22T00:32:59;10.00;;;3.20;;
53781;SDS011;39692;53.114;7.060;2022-07-22T00:35:25;11.48;;;3.45;;
53781;SDS011;39692;53.114;7.060;2022-07-22T00:37:51;7.97;;;3.30;;
53781;SDS011;39692;53.114;7.060;2022-07-22T00:40:17;10.18;;;4.43;;
53781;SDS011;39692;53.114;7.060;2022-07-22T00:42:42;10.10;;;3.72;;
53781;SDS011;39692;53.114;7.060;2022-07-22T00:45:08;7.93;;;3.72;;
53781;SDS011;39692;53.114;7.060;2022-07-22T00:47:35;11.20;;;4.03;;
53781;SDS011;39692;53.114;7.060;2022-07-22T00:50:01;8.30;;;3.47;;
53781;SDS011;39692;53.114;7.060;2022-07-22T00:52:27;10.52;;;3.80;;
53781;SDS011;39692;53.114;7.060;2022-07-22T00:54:53;10.15;;;3.97;;
53781;SDS011;39692;53.114;7.060;2022-07-22T00:57:20;14.65;;;4.43;;
53781;SDS011;39692;53.114;7.060;2022-07-22T00:59:46;9.52;;;4.15;;
53781;SDS011;39692;53.114;7.060;2022-07-22T01:02:12;8.82;;;3.55;;
53781;SDS011;39692;53.114;7.060;2022-07-22T01:04:38;12.13;;;4.20;;
53781;SDS011;39692;53.114;7.060;2022-07-22T01:07:04;8.52;;;3.78;;
53781;SDS011;39692;53.114;7.060;2022-07-22T01:09:30;10.57;;;3.97;;
53781;SDS011;39692;53.114;7.060;2022-07-22T01:11:56;9.60;;;3.70;;
53781;SDS011;39692;53.114;7.060;2022-07-22T01:14:22;13.30;;;4.72;;
53781;SDS011;39692;53.114;7.060;2022-07-22T01:16:47;8.80;;;4.07;;
53781;SDS011;39692;53.114;7.060;2022-07-22T01:19:13;10.43;;;3.97;;
53781;SDS011;39692;53.114;7.060;2022-07-22T01:21:39;10.63;;;4.22;;
53781;SDS011;39692;53.114;7.060;2022-07-22T01:24:04;13.82;;;4.25;;
53781;SDS011;39692;53.114;7.060;2022-07-22T01:26:31;9.15;;;3.80;;
53781;SDS011;39692;53.114;7.060;2022-07-22T01:28:58;10.13;;;4.10;;
53781;SDS011;39692;53.114;7.060;2022-07-22T01:31:24;14.20;;;4.40;;
53781;SDS011;39692;53.114;7.060;2022-07-22T01:33:50;15.93;;;4.80;;
53781;SDS011;39692;53.114;7.060;2022-07-22T01:36:15;11.50;;;4.20;;
53781;SDS011;39692;53.114;7.060;2022-07-22T01:38:41;12.43;;;4.45;;
53781;SDS011;39692;53.114;7.060;2022-07-22T01:41:07;13.30;;;4.50;;
53781;SDS011;39692;53.114;7.060;2022-07-22T01:43:33;10.57;;;4.57;;
53781;SDS011;39692;53.114;7.060;2022-07-22T01:45:59;11.23;;;4.00;;
53781;SDS011;39692;53.114;7.060;2022-07-22T01:48:24;14.30;;;4.40;;
53781;SDS011;39692;53.114;7.060;2022-07-22T01:50:50;9.82;;;4.35;;
53781;SDS011;39692;53.114;7.060;2022-07-22T01:53:16;12.70;;;4.43;;
53781;SDS011;39692;53.114;7.060;2022-07-22T01:55:42;9.90;;;3.90;;
53781;SDS011;39692;53.114;7.060;2022-07-22T01:58:08;14.00;;;4.22;;
53781;SDS011;39692;53.114;7.060;2022-07-22T02:00:34;7.60;;;3.70;;
53781;SDS011;39692;53.114;7.060;2022-07-22T02:03:00;9.57;;;3.75;;
53781;SDS011;39692;53.114;7.060;2022-07-22T02:05:26;10.00;;;4.38;;
53781;SDS011;39692;53.114;7.060;2022-07-22T02:07:52;10.82;;;3.83;;
53781;SDS011;39692;53.114;7.060;2022-07-22T02:10:17;10.07;;;3.97;;
53781;SDS011;39692;53.114;7.060;2022-07-22T02:12:43;11.55;;;3.83;;
53781;SDS011;39692;53.114;7.060;2022-07-22T02:15:09;9.05;;;4.35;;
53781;SDS011;39692;53.114;7.060;2022-07-22T02:17:35;9.30;;;3.90;;
53781;SDS011;39692;53.114;7.060;2022-07-22T02:20:02;9.38;;;3.38;;
53781;SDS011;39692;53.114;7.060;2022-07-22T02:22:28;9.40;;;3.55;;
53781;SDS011;39692;53.114;7.060;2022-07-22T02:24:54;7.88;;;3.40;;
53781;SDS011;39692;53.114;7.060;2022-07-22T02:27:20;7.45;;;3.70;;
53781;SDS011;39692;53.114;7.060;2022-07-22T02:29:46;13.45;;;3.95;;
53781;SDS011;39692;53.114;7.060;2022-07-22T02:32:11;9.65;;;3.33;;
53781;SDS011;39692;53.114;7.060;2022-07-22T02:34:37;11.25;;;4.68;;
53781;SDS011;39692;53.114;7.060;2022-07-22T02:37:03;16.17;;;3.70;;
53781;SDS011;39692;53.114;7.060;2022-07-22T02:39:29;7.95;;;2.80;;
53781;SDS011;39692;53.114;7.060;2022-07-22T02:41:54;8.48;;;2.83;;
53781;SDS011;39692;53.114;7.060;2022-07-22T02:44:20;7.35;;;3.20;;
53781;SDS011;39692;53.114;7.060;2022-07-22T02:46:46;9.27;;;2.88;;
53781;SDS011;39692;53.114;7.060;2022-07-22T02:49:11;8.50;;;3.03;;
53781;SDS011;39692;53.114;7.060;2022-07-22T02:51:37;6.90;;;2.83;;
53781;SDS011;39692;53.114;7.060;2022-07-22T02:54:03;8.77;;;3.10;;
53781;SDS011;39692;53.114;7.060;2022-07-22T02:56:29;10.43;;;3.00;;
53781;SDS011;39692;53.114;7.060;2022-07-22T02:58:54;7.57;;;3.47;;
53781;SDS011;39692;53.114;7.060;2022-07-22T03:01:20;8.93;;;3.13;;
53781;SDS011;39692;53.114;7.060;2022-07-22T03:03:46;10.07;;;3.72;;
53781;SDS011;39692;53.114;7.060;2022-07-22T03:06:12;7.13;;;3.05;;
53781;SDS011;39692;53.114;7.060;2022-07-22T03:08:37;8.18;;;3.22;;
53781;SDS011;39692;53.114;7.060;2022-07-22T03:11:03;10.82;;;2.90;;
53781;SDS011;39692;53.114;7.060;2022-07-22T03:13:29;8.20;;;3.22;;
53781;SDS011;39692;53.114;7.060;2022-07-22T03:15:55;9.57;;;2.85;;
53781;SDS011;39692;53.114;7.060;2022-07-22T03:18:21;8.00;;;2.88;;
53781;SDS011;39692;53.114;7.060;2022-07-22T03:20:46;8.00;;;2.95;;
53781;SDS011;39692;53.114;7.060;2022-07-22T03:23:13;8.77;;;3.70;;
53781;SDS011;39692;53.114;7.060;2022-07-22T03:25:38;10.10;;;2.90;;
53781;SDS011;39692;53.114;7.060;2022-07-22T03:28:04;8.07;;;3.08;;
53781;SDS011;39692;53.114;7.060;2022-07-22T03:30:30;7.25;;;2.67;;
53781;SDS011;39692;53.114;7.060;2022-07-22T03:32:56;8.95;;;2.80;;
53781;SDS011;39692;53.114;7.060;2022-07-22T03:35:22;6.93;;;2.70;;
53781;SDS011;39692;53.114;7.060;2022-07-22T03:37:48;7.65;;;2.60;;
53781;SDS011;39692;53.114;7.060;2022-07-22T03:40:14;7.32;;;2.85;;
53781;SDS011;39692;53.114;7.060;2022-07-22T03:42:41;7.07;;;2.78;;
53781;SDS011;39692;53.114;7.060;2022-07-22T03:45:07;6.70;;;2.67;;
53781;SDS011;39692;53.114;7.060;2022-07-22T03:47:33;12.63;;;3.05;;
53781;SDS011;39692;53.114;7.060;2022-07-22T03:49:59;7.47;;;2.45;;
53781;SDS011;39692;53.114;7.060;2022-07-22T03:52:27;7.40;;;2.83;;
53781;SDS011;39692;53.114;7.060;2022-07-22T03:54:55;6.22;;;2.25;;
53781;SDS011;39692;53.114;7.060;2022-07-22T03:57:21;8.55;;;2.55;;
53781;SDS011;39692;53.114;7.060;2022-07-22T03:59:47;6.25;;;2.80;;
53781;SDS011;39692;53.114;7.060;2022-07-22T04:02:13;10.60;;;3.65;;
53781;SDS011;39692;53.114;7.060;2022-07-22T04:04:39;7.85;;;2.75;;
53781;SDS011;39692;53.114;7.060;2022-07-22T04:07:05;7.57;;;2.80;;
53781;SDS011;39692;53.114;7.060;2022-07-22T04:09:30;7.90;;;2.70;;
53781;SDS011;39692;53.114;7.060;2022-07-22T04:11:56;8.98;;;2.47;;
53781;SDS011;39692;53.114;7.060;2022-07-22T04:14:22;6.72;;;2.50;;
53781;SDS011;39692;53.114;7.060;2022-07-22T04:16:47;9.13;;;2.75;;
53781;SDS011;39692;53.114;7.060;2022-07-22T04:19:13;7.65;;;2.85;;
53781;SDS011;39692;53.114;7.060;2022-07-22T04:21:39;7.28;;;2.60;;
53781;SDS011;39692;53.114;7.060;2022-07-22T04:24:05;8.57;;;3.10;;
53781;SDS011;39692;53.114;7.060;2022-07-22T04:26:32;8.63;;;2.17;;
53781;SDS011;39692;53.114;7.060;2022-07-22T04:28:57;8.18;;;2.88;;
53781;SDS011;39692;53.114;7.060;2022-07-22T04:31:23;6.82;;;2.53;;
53781;SDS011;39692;53.114;7.060;2022-07-22T04:33:49;7.03;;;2.60;;
53781;SDS011;39692;53.114;7.060;2022-07-22T04:36:14;7.97;;;3.17;;
53781;SDS011;39692;53.114;7.060;2022-07-22T04:38:40;8.73;;;2.75;;
53781;SDS011;39692;53.114;7.060;2022-07-22T04:41:06;9.93;;;3.03;;
53781;SDS011;39692;53.114;7.060;2022-07-22T04:43:32;6.75;;;2.35;;
53781;SDS011;39692;53.114;7.060;2022-07-22T04:45:58;7.38;;;2.63;;
53781;SDS011;39692;53.114;7.060;2022-07-22T04:48:24;8.20;;;2.80;;
53781;SDS011;39692;53.114;7.060;2022-07-22T04:50:49;8.25;;;3.42;;
53781;SDS011;39692;53.114;7.060;2022-07-22T04:53:15;8.18;;;2.85;;
53781;SDS011;39692;53.114;7.060;2022-07-22T04:55:40;7.97;;;2.72;;
53781;SDS011;39692;53.114;7.060;2022-07-22T04:58:06;9.40;;;3.00;;
53781;SDS011;39692;53.114;7.060;2022-07-22T05:00:32;7.45;;;2.63;;
53781;SDS011;39692;53.114;7.060;2022-07-22T05:02:58;8.82;;;2.65;;
53781;SDS011;39692;53.114;7.060;2022-07-22T05:05:24;6.82;;;2.50;;
53781;SDS011;39692;53.114;7.060;2022-07-22T05:07:50;8.27;;;3.30;;
53781;SDS011;39692;53.114;7.060;2022-07-22T05:10:15;5.43;;;2.67;;
53781;SDS011;39692;53.114;7.060;2022-07-22T05:12:41;9.68;;;3.38;;
53781;SDS011;39692;53.114;7.060;2022-07-22T05:15:07;7.45;;;2.70;;
53781;SDS011;39692;53.114;7.060;2022-07-22T05:17:33;9.60;;;2.60;;
53781;SDS011;39692;53.114;7.060;2022-07-22T05:19:59;8.80;;;2.80;;
53781;SDS011;39692;53.114;7.060;2022-07-22T05:22:28;7.63;;;2.50;;
53781;SDS011;39692;53.114;7.060;2022-07-22T05:24:53;6.22;;;2.75;;
53781;SDS011;39692;53.114;7.060;2022-07-22T05:27:19;6.45;;;2.63;;
53781;SDS011;39692;53.114;7.060;2022-07-22T05:29:45;7.20;;;2.53;;
53781;SDS011;39692;53.114;7.060;2022-07-22T05:32:10;5.70;;;2.70;;
53781;SDS011;39692;53.114;7.060;2022-07-22T05:34:36;6.05;;;2.28;;
53781;SDS011;39692;53.114;7.060;2022-07-22T05:37:02;8.25;;;2.78;;
53781;SDS011;39692;53.114;7.060;2022-07-22T05:39:27;7.65;;;2.30;;
53781;SDS011;39692;53.114;7.060;2022-07-22T05:41:53;8.77;;;2.38;;
53781;SDS011;39692;53.114;7.060;2022-07-22T05:44:19;6.30;;;2.55;;
53781;SDS011;39692;53.114;7.060;2022-07-22T05:46:44;5.57;;;2.35;;
53781;SDS011;39692;53.114;7.060;2022-07-22T05:49:10;4.57;;;2.20;;
53781;SDS011;39692;53.114;7.060;2022-07-22T05:51:36;7.80;;;1.58;;
53781;SDS011;39692;53.114;7.060;2022-07-22T05:54:02;7.35;;;2.15;;
53781;SDS011;39692;53.114;7.060;2022-07-22T05:56:28;5.53;;;2.03;;
53781;SDS011;39692;53.114;7.060;2022-07-22T05:58:53;7.65;;;2.30;;
53781;SDS011;39692;53.114;7.060;2022-07-22T06:01:21;6.10;;;2.20;;
53781;SDS011;39692;53.114;7.060;2022-07-22T06:03:47;4.85;;;2.15;;
53781;SDS011;39692;53.114;7.060;2022-07-22T06:06:12;4.95;;;1.88;;
53781;SDS011;39692;53.114;7.060;2022-07-22T06:08:38;5.68;;;2.30;;
53781;SDS011;39692;53.114;7.060;2022-07-22T06:11:04;6.45;;;2.30;;
53781;SDS011;39692;53.114;7.060;2022-07-22T06:13:30;8.15;;;2.40;;
53781;SDS011;39692;53.114;7.060;2022-07-22T06:15:56;6.22;;;1.90;;
53781;SDS011;39692;53.114;7.060;2022-07-22T06:18:21;5.18;;;2.08;;
53781;SDS011;39692;53.114;7.060;2022-07-22T06:20:47;8.40;;;2.40;;
53781;SDS011;39692;53.114;7.060;2022-07-22T06:23:13;4.45;;;1.67;;
53781;SDS011;39692;53.114;7.060;2022-07-22T06:25:39;8.32;;;2.58;;
53781;SDS011;39692;53.114;7.060;2022-07-22T06:28:05;9.07;;;2.65;;
53781;SDS011;39692;53.114;7.060;2022-07-22T06:30:30;6.85;;;2.15;;
53781;SDS011;39692;53.114;7.060;2022-07-22T06:32:56;4.25;;;2.10;;
53781;SDS011;39692;53.114;7.060;2022-07-22T06:35:22;6.68;;;1.98;;
53781;SDS011;39692;53.114;7.060;2022-07-22T06:37:49;6.88;;;1.90;;
53781;SDS011;39692;53.114;7.060;2022-07-22T06:40:15;4.88;;;1.77;;
53781;SDS011;39692;53.114;7.060;2022-07-22T06:42:41;6.65;;;1.83;;
53781;SDS011;39692;53.114;7.060;2022-07-22T06:45:07;6.85;;;2.17;;
53781;SDS011;39692;53.114;7.060;2022-07-22T06:47:33;3.80;;;1.80;;
53781;SDS011;39692;53.114;7.060;2022-07-22T06:50:01;5.78;;;2.15;;
53781;SDS011;39692;53.114;7.060;2022-07-22T06:52:31;5.75;;;1.90;;
53781;SDS011;39692;53.114;7.060;2022-07-22T06:54:57;4.70;;;1.67;;
53781;SDS011;39692;53.114;7.060;2022-07-22T06:57:23;10.00;;;2.40;;
53781;SDS011;39692;53.114;7.060;2022-07-22T06:59:48;4.00;;;1.90;;
53781;SDS011;39692;53.114;7.060;2022-07-22T07:02:15;6.28;;;2.13;;
53781;SDS011;39692;53.114;7.060;2022-07-22T07:04:40;8.05;;;1.98;;
53781;SDS011;39692;53.114;7.060;2022-07-22T07:07:07;4.30;;;1.63;;
53781;SDS011;39692;53.114;7.060;2022-07-22T07:09:33;3.65;;;1.70;;
53781;SDS011;39692;53.114;7.060;2022-07-22T07:11:59;5.93;;;1.92;;
53781;SDS011;39692;53.114;7.060;2022-07-22T07:14:24;4.13;;;1.90;;
53781;SDS011;39692;53.114;7.060;2022-07-22T07:16:50;4.20;;;1.80;;
53781;SDS011;39692;53.114;7.060;2022-07-22T07:19:16;7.07;;;1.60;;
53781;SDS011;39692;53.114;7.060;2022-07-22T07:21:42;5.47;;;1.70;;
53781;SDS011;39692;53.114;7.060;2022-07-22T07:24:07;3.72;;;1.40;;
53781;SDS011;39692;53.114;7.060;2022-07-22T07:26:33;4.88;;;1.58;;
53781;SDS011;39692;53.114;7.060;2022-07-22T07:28:59;3.58;;;1.33;;
53781;SDS011;39692;53.114;7.060;2022-07-22T07:31:24;6.97;;;2.15;;
53781;SDS011;39692;53.114;7.060;2022-07-22T07:33:50;3.80;;;1.50;;
53781;SDS011;39692;53.114;7.060;2022-07-22T07:36:16;5.45;;;1.73;;
53781;SDS011;39692;53.114;7.060;2022-07-22T07:38:41;6.18;;;1.88;;
53781;SDS011;39692;53.114;7.060;2022-07-22T07:41:07;7.22;;;1.98;;
53781;SDS011;39692;53.114;7.060;2022-07-22T07:43:33;3.92;;;1.60;;
53781;SDS011;39692;53.114;7.060;2022-07-22T07:45:59;4.15;;;1.40;;
53781;SDS011;39692;53.114;7.060;2022-07-22T07:48:25;3.60;;;1.35;;
53781;SDS011;39692;53.114;7.060;2022-07-22T07:50:51;4.28;;;1.45;;
53781;SDS011;39692;53.114;7.060;2022-07-22T07:53:17;4.38;;;1.50;;
53781;SDS011;39692;53.114;7.060;2022-07-22T07:55:43;4.65;;;1.20;;
53781;SDS011;39692;53.114;7.060;2022-07-22T07:58:09;4.07;;;1.50;;
53781;SDS011;39692;53.114;7.060;2022-07-22T08:00:35;5.00;;;1.60;;
53781;SDS011;39692;53.114;7.060;2022-07-22T08:03:02;4.45;;;2.00;;
53781;SDS011;39692;53.114;7.060;2022-07-22T08:05:28;3.78;;;1.52;;
53781;SDS011;39692;53.114;7.060;2022-07-22T08:07:54;9.88;;;1.85;;
53781;SDS011;39692;53.114;7.060;2022-07-22T08:10:20;4.85;;;1.60;;
53781;SDS011;39692;53.114;7.060;2022-07-22T08:12:47;3.45;;;1.35;;
53781;SDS011;39692;53.114;7.060;2022-07-22T08:15:13;7.07;;;1.40;;
53781;SDS011;39692;53.114;7.060;2022-07-22T08:17:39;5.28;;;1.48;;
53781;SDS011;39692;53.114;7.060;2022-07-22T08:20:05;3.58;;;1.00;;
53781;SDS011;39692;53.114;7.060;2022-07-22T08:22:32;4.22;;;1.77;;
53781;SDS011;39692;53.114;7.060;2022-07-22T08:24:58;3.13;;;1.13;;
53781;SDS011;39692;53.114;7.060;2022-07-22T08:27:24;4.53;;;1.50;;
53781;SDS011;39692;53.114;7.060;2022-07-22T08:29:50;4.05;;;1.05;;
53781;SDS011;39692;53.114;7.060;2022-07-22T08:32:16;2.30;;;1.35;;
53781;SDS011;39692;53.114;7.060;2022-07-22T08:34:42;3.50;;;1.48;;
53781;SDS011;39692;53.114;7.060;2022-07-22T08:37:07;5.13;;;1.40;;
53781;SDS011;39692;53.114;7.060;2022-07-22T08:39:33;3.90;;;1.42;;
53781;SDS011;39692;53.114;7.060;2022-07-22T08:41:59;4.45;;;1.13;;
53781;SDS011;39692;53.114;7.060;2022-07-22T08:44:28;3.40;;;1.17;;
53781;SDS011;39692;53.114;7.060;2022-07-22T08:46:55;5.03;;;1.55;;
53781;SDS011;39692;53.114;7.060;2022-07-22T08:49:21;2.35;;;1.10;;
53781;SDS011;39692;53.114;7.060;2022-07-22T08:51:46;4.10;;;1.50;;
53781;SDS011;39692;53.114;7.060;2022-07-22T08:54:12;4.50;;;1.30;;
53781;SDS011;39692;53.114;7.060;2022-07-22T08:56:38;5.15;;;1.20;;
53781;SDS011;39692;53.114;7.060;2022-07-22T08:59:04;3.10;;;1.08;;
53781;SDS011;39692;53.114;7.060;2022-07-22T09:01:30;2.30;;;0.98;;
53781;SDS011;39692;53.114;7.060;2022-07-22T09:03:56;5.78;;;1.38;;
53781;SDS011;39692;53.114;7.060;2022-07-22T09:06:23;2.70;;;1.15;;
53781;SDS011;39692;53.114;7.060;2022-07-22T09:08:51;4.53;;;1.17;;
53781;SDS011;39692;53.114;7.060;2022-07-22T09:11:17;4.93;;;1.10;;
53781;SDS011;39692;53.114;7.060;2022-07-22T09:13:45;3.28;;;0.95;;
53781;SDS011;39692;53.114;7.060;2022-07-22T09:16:10;4.63;;;1.23;;
53781;SDS011;39692;53.114;7.060;2022-07-22T09:18:49;2.10;;;1.05;;
53781;SDS011;39692;53.114;7.060;2022-07-22T09:21:16;4.22;;;1.33;;
53781;SDS011;39692;53.114;7.060;2022-07-22T09:23:42;6.15;;;1.58;;
53781;SDS011;39692;53.114;7.060;2022-07-22T09:26:11;4.07;;;1.55;;
53781;SDS011;39692;53.114;7.060;2022-07-22T09:29:02;4.97;;;1.08;;
53781;SDS011;39692;53.114;7.060;2022-07-22T09:31:30;5.68;;;1.65;;
53781;SDS011;39692;53.114;7.060;2022-07-22T09:33:57;4.18;;;1.20;;
53781;SDS011;39692;53.114;7.060;2022-07-22T09:36:24;3.58;;;1.02;;
53781;SDS011;39692;53.114;7.060;2022-07-22T09:38:50;4.20;;;1.08;;
53781;SDS011;39692;53.114;7.060;2022-07-22T09:41:16;3.13;;;1.23;;
53781;SDS011;39692;53.114;7.060;2022-07-22T09:43:42;4.03;;;1.60;;
53781;SDS011;39692;53.114;7.060;2022-07-22T09:46:08;4.60;;;1.33;;
53781;SDS011;39692;53.114;7.060;2022-07-22T09:48:35;2.78;;;1.02;;
53781;SDS011;39692;53.114;7.060;2022-07-22T09:51:03;3.00;;;1.48;;
53781;SDS011;39692;53.114;7.060;2022-07-22T09:53:29;4.78;;;1.13;;
53781;SDS011;39692;53.114;7.060;2022-07-22T09:55:56;4.10;;;1.60;;
53781;SDS011;39692;53.114;7.060;2022-07-22T09:58:24;4.45;;;1.20;;
53781;SDS011;39692;53.114;7.060;2022-07-22T10:00:51;5.47;;;1.52;;
53781;SDS011;39692;53.114;7.060;2022-07-22T10:03:21;4.95;;;1.55;;
53781;SDS011;39692;53.114;7.060;2022-07-22T10:05:51;5.28;;;1.50;;
53781;SDS011;39692;53.114;7.060;2022-07-22T10:08:17;4.35;;;1.20;;
53781;SDS011;39692;53.114;7.060;2022-07-22T10:10:43;3.75;;;1.55;;
53781;SDS011;39692;53.114;7.060;2022-07-22T10:13:09;3.45;;;1.38;;
53781;SDS011;39692;53.114;7.060;2022-07-22T10:15:36;5.30;;;1.52;;
53781;SDS011;39692;53.114;7.060;2022-07-22T10:18:04;7.40;;;1.50;;
53781;SDS011;39692;53.114;7.060;2022-07-22T10:20:32;3.75;;;1.70;;
53781;SDS011;39692;53.114;7.060;2022-07-22T10:23:00;6.45;;;1.30;;
53781;SDS011;39692;53.114;7.060;2022-07-22T10:25:27;6.53;;;1.48;;
53781;SDS011;39692;53.114;7.060;2022-07-22T10:30:28;4.20;;;1.52;;
53781;SDS011;39692;53.114;7.060;2022-07-22T10:35:38;5.95;;;2.00;;
53781;SDS011;39692;53.114;7.060;2022-07-22T10:38:18;4.15;;;1.63;;
53781;SDS011;39692;53.114;7.060;2022-07-22T10:43:26;5.38;;;1.10;;
53781;SDS011;39692;53.114;7.060;2022-07-22T10:46:10;3.60;;;1.30;;
53781;SDS011;39692;53.114;7.060;2022-07-22T10:51:12;4.15;;;1.52;;
53781;SDS011;39692;53.114;7.060;2022-07-22T10:58:54;3.58;;;1.38;;
53781;SDS011;39692;53.114;7.060;2022-07-22T11:01:35;4.05;;;1.30;;
53781;SDS011;39692;53.114;7.060;2022-07-22T11:06:36;2.92;;;1.10;;
53781;SDS011;39692;53.114;7.060;2022-07-22T11:09:07;4.93;;;1.38;;
53781;SDS011;39692;53.114;7.060;2022-07-22T11:11:36;3.47;;;1.25;;
53781;SDS011;39692;53.114;7.060;2022-07-22T11:14:13;7.13;;;1.90;;
53781;SDS011;39692;53.114;7.060;2022-07-22T11:16:56;2.75;;;1.20;;
53781;SDS011;39692;53.114;7.060;2022-07-22T11:19:25;5.10;;;1.92;;
53781;SDS011;39692;53.114;7.060;2022-07-22T11:21:55;3.92;;;1.20;;
53781;SDS011;39692;53.114;7.060;2022-07-22T11:24:24;5.03;;;1.45;;
53781;SDS011;39692;53.114;7.060;2022-07-22T11:26:51;3.72;;;1.20;;
53781;SDS011;39692;53.114;7.060;2022-07-22T11:29:29;4.03;;;1.70;;
53781;SDS011;39692;53.114;7.060;2022-07-22T11:32:06;3.08;;;1.40;;
53781;SDS011;39692;53.114;7.060;2022-07-22T11:34:38;2.75;;;1.10;;
53781;SDS011;39692;53.114;7.060;2022-07-22T11:37:08;4.37;;;1.40;;
53781;SDS011;39692;53.114;7.060;2022-07-22T11:39:34;3.28;;;1.42;;
53781;SDS011;39692;53.114;7.060;2022-07-22T11:42:00;2.72;;;1.30;;
53781;SDS011;39692;53.114;7.060;2022-07-22T11:44:27;3.22;;;1.20;;
53781;SDS011;39692;53.114;7.060;2022-07-22T11:46:55;2.78;;;1.20;;
53781;SDS011;39692;53.114;7.060;2022-07-22T11:49:23;4.30;;;1.15;;
53781;SDS011;39692;53.114;7.060;2022-07-22T11:51:50;6.10;;;1.58;;
53781;SDS011;39692;53.114;7.060;2022-07-22T11:54:16;2.50;;;1.20;;
53781;SDS011;39692;53.114;7.060;2022-07-22T11:56:47;3.00;;;1.20;;
53781;SDS011;39692;53.114;7.060;2022-07-22T11:59:14;3.90;;;1.38;;
53781;SDS011;39692;53.114;7.060;2022-07-22T12:01:42;4.03;;;1.10;;
53781;SDS011;39692;53.114;7.060;2022-07-22T12:04:10;4.22;;;1.38;;
53781;SDS011;39692;53.114;7.060;2022-07-22T12:06:39;5.20;;;1.40;;
53781;SDS011;39692;53.114;7.060;2022-07-22T12:09:17;3.45;;;1.25;;
53781;SDS011;39692;53.114;7.060;2022-07-22T12:11:52;3.97;;;1.25;;
53781;SDS011;39692;53.114;7.060;2022-07-22T12:14:25;3.63;;;1.35;;
53781;SDS011;39692;53.114;7.060;2022-07-22T12:16:59;3.22;;;1.35;;
53781;SDS011;39692;53.114;7.060;2022-07-22T12:19:26;3.17;;;1.20;;
53781;SDS011;39692;53.114;7.060;2022-07-22T12:22:03;4.60;;;1.50;;
53781;SDS011;39692;53.114;7.060;2022-07-22T12:24:33;2.97;;;1.17;;
53781;SDS011;39692;53.114;7.060;2022-07-22T12:27:04;6.78;;;1.42;;
53781;SDS011;39692;53.114;7.060;2022-07-22T12:32:04;4.45;;;1.50;;
53781;SDS011;39692;53.114;7.060;2022-07-22T12:34:38;4.43;;;1.40;;
53781;SDS011;39692;53.114;7.060;2022-07-22T12:37:11;5.53;;;1.40;;
53781;SDS011;39692;53.114;7.060;2022-07-22T12:39:38;4.43;;;1.40;;
53781;SDS011;39692;53.114;7.060;2022-07-22T12:42:15;3.80;;;1.50;;
53781;SDS011;39692;53.114;7.060;2022-07-22T12:44:50;3.25;;;1.20;;
53781;SDS011;39692;53.114;7.060;2022-07-22T12:52:42;2.38;;;0.90;;
53781;SDS011;39692;53.114;7.060;2022-07-22T12:55:08;3.55;;;1.00;;
53781;SDS011;39692;53.114;7.060;2022-07-22T12:57:33;3.13;;;1.00;;
53781;SDS011;39692;53.114;7.060;2022-07-22T12:59:59;3.13;;;1.20;;
53781;SDS011;39692;53.114;7.060;2022-07-22T13:02:25;3.05;;;1.25;;
53781;SDS011;39692;53.114;7.060;2022-07-22T13:04:50;4.18;;;1.20;;
53781;SDS011;39692;53.114;7.060;2022-07-22T13:07:16;3.42;;;1.10;;
53781;SDS011;39692;53.114;7.060;2022-07-22T13:09:42;2.92;;;1.00;;
53781;SDS011;39692;53.114;7.060;2022-07-22T13:12:07;2.42;;;1.20;;
53781;SDS011;39692;53.114;7.060;2022-07-22T13:14:33;3.22;;;0.90;;
53781;SDS011;39692;53.114;7.060;2022-07-22T13:16:59;2.97;;;1.17;;
53781;SDS011;39692;53.114;7.060;2022-07-22T13:19:24;3.65;;;1.30;;
53781;SDS011;39692;53.114;7.060;2022-07-22T13:21:50;3.08;;;1.00;;
53781;SDS011;39692;53.114;7.060;2022-07-22T13:24:15;5.15;;;1.15;;
53781;SDS011;39692;53.114;7.060;2022-07-22T13:26:41;4.05;;;1.40;;
53781;SDS011;39692;53.114;7.060;2022-07-22T13:29:07;3.45;;;1.30;;
53781;SDS011;39692;53.114;7.060;2022-07-22T13:31:33;3.22;;;1.08;;
53781;SDS011;39692;53.114;7.060;2022-07-22T13:33:58;3.85;;;1.33;;
53781;SDS011;39692;53.114;7.060;2022-07-22T13:36:24;4.32;;;1.10;;
53781;SDS011;39692;53.114;7.060;2022-07-22T13:38:50;2.13;;;1.00;;
53781;SDS011;39692;53.114;7.060;2022-07-22T13:41:16;3.58;;;1.20;;
53781;SDS011;39692;53.114;7.060;2022-07-22T13:43:42;2.33;;;1.20;;
53781;SDS011;39692;53.114;7.060;2022-07-22T13:46:09;3.60;;;1.23;;
53781;SDS011;39692;53.114;7.060;2022-07-22T13:48:34;9.07;;;1.20;;
53781;SDS011;39692;53.114;7.060;2022-07-22T13:51:00;5.25;;;1.88;;
53781;SDS011;39692;53.114;7.060;2022-07-22T13:53:26;3.95;;;1.30;;
53781;SDS011;39692;53.114;7.060;2022-07-22T13:55:51;3.95;;;1.10;;
53781;SDS011;39692;53.114;7.060;2022-07-22T13:58:17;3.83;;;1.35;;
53781;SDS011;39692;53.114;7.060;2022-07-22T14:00:43;4.13;;;1.30;;
53781;SDS011;39692;53.114;7.060;2022-07-22T14:03:09;3.70;;;1.35;;
53781;SDS011;39692;53.114;7.060;2022-07-22T14:05:34;3.70;;;1.20;;
53781;SDS011;39692;53.114;7.060;2022-07-22T14:08:00;5.07;;;1.20;;
53781;SDS011;39692;53.114;7.060;2022-07-22T14:10:26;3.20;;;1.15;;
53781;SDS011;39692;53.114;7.060;2022-07-22T14:12:51;3.33;;;1.40;;
53781;SDS011;39692;53.114;7.060;2022-07-22T14:15:17;3.80;;;1.20;;
53781;SDS011;39692;53.114;7.060;2022-07-22T14:17:43;4.05;;;1.00;;
53781;SDS011;39692;53.114;7.060;2022-07-22T14:20:08;5.03;;;1.30;;
53781;SDS011;39692;53.114;7.060;2022-07-22T14:22:35;1.83;;;0.75;;
53781;SDS011;39692;53.114;7.060;2022-07-22T14:25:00;2.13;;;0.95;;
53781;SDS011;39692;53.114;7.060;2022-07-22T14:27:26;3.58;;;1.30;;
53781;SDS011;39692;53.114;7.060;2022-07-22T14:29:52;4.10;;;1.33;;
53781;SDS011;39692;53.114;7.060;2022-07-22T14:32:17;3.75;;;1.20;;
53781;SDS011;39692;53.114;7.060;2022-07-22T14:34:44;3.47;;;1.13;;
53781;SDS011;39692;53.114;7.060;2022-07-22T14:37:10;2.72;;;1.10;;
53781;SDS011;39692;53.114;7.060;2022-07-22T14:39:35;3.72;;;1.35;;
53781;SDS011;39692;53.114;7.060;2022-07-22T14:42:01;3.95;;;1.33;;
53781;SDS011;39692;53.114;7.060;2022-07-22T14:44:27;2.65;;;1.02;;
53781;SDS011;39692;53.114;7.060;2022-07-22T14:46:52;4.38;;;1.10;;
53781;SDS011;39692;53.114;7.060;2022-07-22T14:49:18;5.60;;;1.40;;
53781;SDS011;39692;53.114;7.060;2022-07-22T14:51:44;2.85;;;1.20;;
53781;SDS011;39692;53.114;7.060;2022-07-22T14:54:09;4.10;;;1.45;;
53781;SDS011;39692;53.114;7.060;2022-07-22T14:56:37;2.50;;;1.20;;
53781;SDS011;39692;53.114;7.060;2022-07-22T14:59:04;4.25;;;1.23;;
53781;SDS011;39692;53.114;7.060;2022-07-22T15:01:30;2.90;;;1.30;;
53781;SDS011;39692;53.114;7.060;2022-07-22T15:03:56;2.78;;;1.05;;
53781;SDS011;39692;53.114;7.060;2022-07-22T15:06:21;4.95;;;1.13;;
53781;SDS011;39692;53.114;7.060;2022-07-22T15:08:48;5.00;;;1.42;;